This is the latest recevied weather packets stored in our database for station/object S54Z-11. If no packets are shown the sender has not sent any weather packets the latest 10 day(s).
| Time | Temp. | Humidity | Pressure | Rain* | Wind** | Luminosity | Snow |
|---|---|---|---|---|---|---|---|
| 1777609474 | 7.22° C | 41% | 1029.6 hPa | - | - | - | - |
| 1777608574 | 5.56° C | 46% | 1029.5 hPa | - | - | - | - |
| 1777607674 | 3.33° C | 51% | 1029.5 hPa | - | - | - | - |
| 1777606774 | 3.89° C | 51% | 1029.4 hPa | - | - | - | - |
| 1777605873 | 3.89° C | 50% | 1029.5 hPa | - | - | - | - |
| 1777604973 | 3.33° C | 52% | 1029.5 hPa | - | - | - | - |
| 1777604073 | 3.33° C | 52% | 1029.5 hPa | - | - | - | - |
| 1777603173 | 3.33° C | 51% | 1029.5 hPa | - | - | - | - |
| 1777602273 | 3.33° C | 50% | 1029.5 hPa | - | - | - | - |
| 1777601373 | 2.78° C | 54% | 1029.6 hPa | - | - | - | - |
| 1777600473 | 3.33° C | 51% | 1029.7 hPa | - | - | - | - |
| 1777584271 | 5.56° C | 44% | 1029.9 hPa | - | - | - | - |
| 1777583370 | 6.11° C | 41% | 1029.9 hPa | - | - | - | - |
| 1777581570 | 6.67° C | 37% | 1029.9 hPa | - | - | - | - |
| 1777579770 | 7.22° C | 37% | 1029.7 hPa | - | - | - | - |
| 1777577072 | 7.22° C | 37% | 1029.6 hPa | - | - | - | - |
| 1777576172 | 7.78° C | 35% | 1029.5 hPa | - | - | - | - |
| 1777575272 | 7.78° C | 36% | 1029.4 hPa | - | - | - | - |
| 1777574372 | 8.33° C | 35% | 1029.2 hPa | - | - | - | - |
| 1777573474 | 8.33° C | 35% | 1028.9 hPa | - | - | - | - |
| 1777572572 | 8.33° C | 33% | 1028.7 hPa | - | - | - | - |
| 1777570772 | 9.44° C | 32% | 1028.5 hPa | - | - | - | - |
| 1777569872 | 9.44° C | 32% | 1028.4 hPa | - | - | - | - |
| 1777568972 | 9.44° C | 32% | 1028.3 hPa | - | - | - | - |
| 1777568072 | 10° C | 31% | 1028.3 hPa | - | - | - | - |
* Rain since midnight (hover to see other rain measurements)
** Current wind speed in m/s (hover to see current wind gust speed)